createdAt,value
2022-09-09T00:00:14.430Z,99.99
2022-09-09T00:01:14.456Z,99.99
2022-09-09T00:02:14.644Z,99.99
2022-09-09T00:03:14.676Z,99.99
2022-09-09T00:04:14.537Z,99.99
2022-09-09T00:05:14.562Z,99.99
2022-09-09T00:06:14.589Z,99.99
2022-09-09T00:07:14.613Z,99.99
2022-09-09T00:08:14.641Z,99.99
2022-09-09T00:09:14.669Z,99.99
2022-09-09T00:10:14.693Z,99.99
2022-09-09T00:11:14.719Z,99.91
2022-09-09T00:12:14.745Z,99.99
2022-09-09T00:13:14.771Z,99.44
2022-09-09T00:14:14.794Z,99.53
2022-09-09T00:15:14.823Z,99.44
2022-09-09T00:16:15.010Z,99.44
2022-09-09T00:17:14.877Z,99.34
2022-09-09T00:18:14.906Z,99.82
2022-09-09T00:19:14.935Z,99.91
2022-09-09T00:20:14.960Z,99.63
2022-09-09T00:21:14.978Z,99.73
2022-09-09T00:22:15.004Z,99.99
2022-09-09T00:23:15.036Z,99.91
2022-09-09T00:24:15.060Z,99.99
2022-09-09T00:25:15.085Z,99.99
2022-09-09T00:26:15.111Z,99.99
2022-09-09T00:27:15.145Z,99.99
2022-09-09T00:28:15.166Z,99.99
2022-09-09T00:29:15.190Z,99.99
2022-09-09T00:30:15.223Z,99.99
2022-09-09T00:31:15.307Z,99.99
2022-09-09T00:32:15.268Z,99.99
2022-09-09T00:33:15.295Z,99.91
2022-09-09T00:34:15.321Z,99.99
2022-09-09T00:35:15.345Z,99.99
2022-09-09T00:36:15.377Z,99.99
2022-09-09T00:37:15.402Z,99.99
2022-09-09T00:38:15.426Z,99.99
2022-09-09T00:39:15.453Z,99.99
2022-09-09T00:40:15.567Z,99.91
2022-09-09T00:41:15.506Z,99.99
2022-09-09T00:42:15.532Z,99.99
2022-09-09T00:43:15.557Z,99.99
2022-09-09T00:44:15.591Z,99.99
2022-09-09T00:45:15.608Z,99.99
2022-09-09T00:46:15.652Z,99.99
2022-09-09T00:47:15.659Z,99.99
2022-09-09T00:48:15.691Z,99.99
2022-09-09T00:49:15.714Z,99.99
2022-09-09T00:50:15.739Z,99.99
2022-09-09T00:51:15.767Z,99.99
2022-09-09T00:52:15.796Z,99.99
2022-09-09T00:53:15.821Z,99.99
2022-09-09T00:54:15.848Z,99.99
2022-09-09T00:55:15.874Z,99.99
2022-09-09T00:56:15.897Z,99.99
2022-09-09T00:57:15.925Z,99.99
2022-09-09T00:58:15.953Z,99.99
2022-09-09T00:59:15.979Z,99.99
2022-09-09T01:00:16.010Z,99.99
2022-09-09T01:01:16.182Z,99.99
2022-09-09T01:02:16.084Z,99.99
2022-09-09T01:03:16.086Z,99.99
2022-09-09T01:04:16.111Z,99.99
2022-09-09T01:05:16.136Z,99.99
2022-09-09T01:06:16.163Z,99.99
2022-09-09T01:07:16.190Z,99.99
2022-09-09T01:08:16.221Z,99.99
2022-09-09T01:09:16.238Z,99.99
2022-09-09T01:10:16.268Z,99.99
2022-09-09T01:11:16.297Z,99.99
2022-09-09T01:12:16.325Z,99.99
2022-09-09T01:13:16.346Z,99.99
2022-09-09T01:14:16.377Z,99.99
2022-09-09T01:15:16.401Z,99.99
2022-09-09T01:16:16.453Z,99.99
2022-09-09T01:17:16.457Z,99.99
2022-09-09T01:18:16.481Z,99.99
2022-09-09T01:19:16.510Z,99.99
2022-09-09T01:20:16.541Z,99.99
2022-09-09T01:21:16.558Z,99.99
2022-09-09T01:22:16.588Z,99.99
2022-09-09T01:23:16.613Z,99.99
2022-09-09T01:24:16.643Z,99.99
2022-09-09T01:25:16.672Z,99.99
2022-09-09T01:26:16.694Z,99.99
2022-09-09T01:27:16.720Z,99.99
2022-09-09T01:28:16.745Z,99.99
2022-09-09T01:29:16.773Z,99.99
2022-09-09T01:30:16.798Z,99.99
2022-09-09T01:31:16.864Z,99.99
2022-09-09T01:32:16.852Z,99.99
2022-09-09T01:33:16.879Z,99.99
2022-09-09T01:34:16.905Z,99.99
2022-09-09T01:35:16.934Z,99.99
2022-09-09T01:36:16.976Z,99.99
2022-09-09T01:37:16.989Z,99.99
2022-09-09T01:38:17.011Z,99.99
2022-09-09T01:39:17.043Z,99.99
2022-09-09T01:40:17.147Z,99.99
2022-09-09T01:41:17.098Z,99.99
2022-09-09T01:42:17.116Z,99.99
2022-09-09T01:43:17.146Z,99.99
2022-09-09T01:44:17.169Z,99.99
2022-09-09T01:45:17.201Z,99.99
2022-09-09T01:46:17.260Z,99.99
2022-09-09T01:47:17.251Z,99.99
2022-09-09T01:48:17.277Z,99.99
2022-09-09T01:49:17.300Z,99.99
2022-09-09T01:50:17.331Z,99.99
2022-09-09T01:51:17.356Z,99.99
2022-09-09T01:52:17.384Z,99.99
2022-09-09T01:53:17.412Z,99.99
2022-09-09T01:54:17.431Z,99.99
2022-09-09T01:55:17.462Z,99.99
2022-09-09T01:56:17.545Z,99.99
2022-09-09T01:57:17.513Z,99.99
2022-09-09T01:58:17.538Z,99.99
2022-09-09T01:59:17.567Z,99.99
2022-09-09T02:00:17.597Z,99.99
2022-09-09T02:01:17.692Z,99.99
2022-09-09T02:02:17.709Z,99.99
2022-09-09T02:03:17.669Z,99.99
2022-09-09T02:04:17.703Z,99.99
2022-09-09T02:05:17.727Z,99.99
2022-09-09T02:06:17.755Z,99.99
2022-09-09T02:07:17.779Z,99.99
2022-09-09T02:08:17.805Z,99.99
2022-09-09T02:09:17.832Z,99.99
2022-09-09T02:10:17.857Z,99.99
2022-09-09T02:11:17.889Z,99.99
2022-09-09T02:12:17.913Z,99.99
2022-09-09T02:13:17.938Z,99.99
2022-09-09T02:14:17.965Z,99.99
2022-09-09T02:15:17.993Z,99.99
2022-09-09T02:16:18.077Z,99.99
2022-09-09T02:17:18.039Z,99.99
2022-09-09T02:18:18.088Z,99.99
2022-09-09T02:19:18.098Z,99.99
2022-09-09T02:20:18.201Z,99.99
2022-09-09T02:21:18.149Z,99.99
2022-09-09T02:22:18.175Z,99.99
2022-09-09T02:23:18.232Z,99.99
2022-09-09T02:24:18.227Z,99.99
2022-09-09T02:25:18.253Z,99.99
2022-09-09T02:26:18.282Z,99.99
2022-09-09T02:27:18.306Z,99.99
2022-09-09T02:28:18.332Z,99.99
2022-09-09T02:29:18.363Z,99.99
2022-09-09T02:30:18.392Z,99.99
2022-09-09T02:31:18.411Z,99.99
2022-09-09T02:32:18.440Z,99.99
2022-09-09T02:33:18.468Z,99.99
2022-09-09T02:34:18.505Z,99.99
2022-09-09T02:35:18.519Z,99.99
2022-09-09T02:36:18.540Z,99.99
2022-09-09T02:37:18.568Z,99.99
2022-09-09T02:38:18.597Z,99.99
2022-09-09T02:39:18.632Z,99.99
2022-09-09T02:40:18.701Z,99.99
2022-09-09T02:41:18.677Z,99.99
2022-09-09T02:42:18.705Z,99.99
2022-09-09T02:43:18.729Z,99.99
2022-09-09T02:44:18.824Z,99.99
2022-09-09T02:45:18.791Z,99.99
2022-09-09T02:46:18.840Z,99.99
2022-09-09T02:47:18.837Z,99.99
2022-09-09T02:48:18.862Z,99.99
2022-09-09T02:49:18.887Z,99.99
2022-09-09T02:50:18.916Z,99.99
2022-09-09T02:51:18.943Z,99.99
2022-09-09T02:52:18.968Z,99.99
2022-09-09T02:53:18.995Z,99.99
2022-09-09T02:54:19.034Z,99.99
2022-09-09T02:55:19.046Z,99.99
2022-09-09T02:56:19.075Z,99.99
2022-09-09T02:57:19.098Z,99.99
2022-09-09T02:58:19.125Z,99.99
2022-09-09T02:59:19.158Z,99.99
2022-09-09T03:00:19.179Z,99.99
2022-09-09T03:01:19.245Z,99.99
2022-09-09T03:02:19.254Z,99.99
2022-09-09T03:03:19.255Z,99.99
2022-09-09T03:04:19.280Z,99.99
2022-09-09T03:05:19.308Z,99.99
2022-09-09T03:06:26.507Z,99.99
2022-09-09T03:08:23.829Z,99.99
2022-09-09T03:09:23.378Z,99.99
2022-09-09T03:11:16.329Z,99.99
2022-09-09T03:12:16.337Z,99.99
2022-09-09T03:14:20.828Z,99.99
2022-09-09T03:15:20.384Z,99.99
2022-09-09T03:17:24.409Z,99.99
2022-09-09T03:18:24.422Z,99.99
2022-09-09T03:20:28.916Z,99.99
2022-09-09T03:21:28.487Z,99.99
2022-09-09T03:23:32.525Z,99.99
2022-09-09T03:24:32.541Z,99.99
2022-09-09T03:26:37.031Z,99.99
2022-09-09T03:27:36.575Z,99.99
2022-09-09T03:29:29.717Z,99.99
2022-09-09T03:30:29.739Z,99.99
2022-09-09T03:32:34.228Z,99.99
2022-09-09T03:33:33.777Z,99.99
2022-09-09T03:35:37.797Z,99.99
2022-09-09T03:36:37.819Z,99.99
2022-09-09T03:38:42.311Z,99.99
2022-09-09T03:39:41.886Z,99.99
2022-09-09T03:41:46.465Z,99.99
2022-09-09T03:42:46.106Z,99.99
2022-09-09T03:44:52.082Z,99.99
2022-09-09T03:45:50.209Z,99.99
2022-09-09T03:47:54.178Z,99.99
2022-09-09T03:48:54.189Z,99.99
2022-09-09T03:50:47.693Z,99.99
2022-09-09T03:51:47.146Z,99.99
2022-09-09T03:53:51.177Z,99.99
2022-09-09T03:54:51.191Z,99.99
2022-09-09T03:56:55.693Z,99.99
2022-09-09T03:57:55.239Z,99.99
2022-09-09T03:59:59.251Z,99.99
2022-09-09T04:00:59.317Z,99.99
2022-09-09T04:03:03.760Z,99.99
2022-09-09T04:04:03.313Z,99.99
2022-09-09T04:05:03.334Z,99.99
2022-09-09T04:06:03.359Z,99.99
2022-09-09T04:07:03.388Z,99.99
2022-09-09T04:08:03.424Z,99.99
2022-09-09T04:09:03.438Z,99.99
2022-09-09T04:10:03.465Z,99.99
2022-09-09T04:11:03.501Z,99.99
2022-09-09T04:12:03.519Z,99.99
2022-09-09T04:13:03.546Z,99.99
2022-09-09T04:14:03.575Z,99.99
2022-09-09T04:15:03.597Z,99.99
2022-09-09T04:16:03.666Z,99.99
2022-09-09T04:17:03.650Z,99.99
2022-09-09T04:18:03.675Z,99.99
2022-09-09T04:19:03.700Z,99.99
2022-09-09T04:20:03.730Z,99.99
2022-09-09T04:21:03.752Z,99.99
2022-09-09T04:22:03.781Z,99.99
2022-09-09T04:23:03.807Z,99.99
2022-09-09T04:24:03.836Z,99.99
2022-09-09T04:25:03.859Z,99.99
2022-09-09T04:26:03.890Z,99.99
2022-09-09T04:27:03.911Z,99.99
2022-09-09T04:28:03.938Z,99.99
2022-09-09T04:29:03.963Z,99.99
2022-09-09T04:30:03.992Z,99.99
2022-09-09T04:31:04.017Z,99.99
2022-09-09T04:32:04.114Z,99.99
2022-09-09T04:33:04.069Z,99.99
2022-09-09T04:34:04.098Z,99.99
2022-09-09T04:35:04.125Z,99.99
2022-09-09T04:36:04.150Z,99.99
2022-09-09T04:37:04.175Z,99.99
2022-09-09T04:38:04.222Z,99.99
2022-09-09T04:39:04.246Z,99.99
2022-09-09T04:40:04.328Z,99.99
2022-09-09T04:41:04.281Z,99.99
2022-09-09T04:42:04.308Z,99.99
2022-09-09T04:43:04.331Z,99.99
2022-09-09T04:44:04.362Z,99.99
2022-09-09T04:45:04.383Z,99.99
2022-09-09T04:46:04.500Z,99.99
2022-09-09T04:47:04.440Z,99.99
2022-09-09T04:48:04.466Z,99.99
2022-09-09T04:49:04.492Z,99.99
2022-09-09T04:50:04.511Z,99.99
2022-09-09T04:51:04.586Z,99.99
2022-09-09T04:52:04.566Z,99.99
2022-09-09T04:53:04.597Z,99.99
2022-09-09T04:54:04.617Z,99.99
2022-09-09T04:55:04.646Z,99.99
2022-09-09T04:56:04.676Z,99.99
2022-09-09T04:57:04.703Z,99.99
2022-09-09T04:58:04.726Z,99.99
2022-09-09T04:59:04.754Z,99.99
2022-09-09T05:00:04.779Z,99.99
2022-09-09T05:01:04.867Z,99.99
2022-09-09T05:02:04.914Z,99.99
2022-09-09T05:03:04.861Z,99.99
2022-09-09T05:04:04.887Z,99.99
2022-09-09T05:05:04.913Z,99.99
2022-09-09T05:06:04.939Z,99.99
2022-09-09T05:07:04.965Z,99.99
2022-09-09T05:08:04.992Z,99.99
2022-09-09T05:09:05.013Z,99.99
2022-09-09T05:10:05.043Z,99.99
2022-09-09T05:11:05.066Z,99.99
2022-09-09T05:12:05.095Z,99.99
2022-09-09T05:13:05.121Z,99.99
2022-09-09T05:14:05.149Z,99.99
2022-09-09T05:15:05.178Z,99.99
2022-09-09T05:16:05.233Z,99.99
2022-09-09T05:17:05.226Z,99.99
2022-09-09T05:18:05.252Z,99.99
2022-09-09T05:19:05.290Z,99.99
2022-09-09T05:20:09.547Z,99.99
2022-09-09T05:21:05.333Z,99.99
2022-09-09T05:22:05.356Z,99.99
2022-09-09T05:23:05.387Z,99.99
2022-09-09T05:24:05.413Z,99.99
2022-09-09T05:25:05.440Z,99.99
2022-09-09T05:26:05.463Z,99.99
2022-09-09T05:27:05.494Z,99.99
2022-09-09T05:28:05.515Z,99.99
2022-09-09T05:29:05.545Z,99.99
2022-09-09T05:30:05.575Z,99.99
2022-09-09T05:31:05.668Z,99.99
2022-09-09T05:32:05.618Z,99.99
2022-09-09T05:33:05.651Z,99.99
2022-09-09T05:34:05.679Z,99.99
2022-09-09T05:35:05.705Z,99.99
2022-09-09T05:36:05.731Z,99.99
2022-09-09T05:37:05.757Z,99.99
2022-09-09T05:38:05.791Z,99.99
2022-09-09T05:39:05.815Z,99.99
2022-09-09T05:40:05.884Z,99.99
2022-09-09T05:41:05.865Z,99.99
2022-09-09T05:42:05.890Z,99.99
2022-09-09T05:43:05.917Z,99.99
2022-09-09T05:44:05.942Z,99.99
2022-09-09T05:45:05.971Z,99.99
2022-09-09T05:46:05.996Z,99.99
2022-09-09T05:47:06.140Z,99.99
2022-09-09T05:48:06.051Z,99.99
2022-09-09T05:49:06.079Z,99.99
2022-09-09T05:50:06.106Z,99.99
2022-09-09T05:51:06.128Z,99.99
2022-09-09T05:52:06.158Z,99.99
2022-09-09T05:53:06.183Z,99.99
2022-09-09T05:54:06.211Z,99.99
2022-09-09T05:55:06.263Z,99.99
2022-09-09T05:56:06.262Z,99.99
2022-09-09T05:57:06.289Z,99.99
2022-09-09T05:58:06.314Z,99.99
2022-09-09T05:59:06.341Z,99.99
2022-09-09T06:00:06.386Z,99.99
2022-09-09T06:01:06.396Z,99.99
2022-09-09T06:02:06.573Z,99.99
2022-09-09T06:03:06.610Z,99.99
2022-09-09T06:04:06.475Z,99.99
2022-09-09T06:05:06.504Z,99.99
2022-09-09T06:06:06.531Z,99.99
2022-09-09T06:07:06.569Z,99.99
2022-09-09T06:08:06.600Z,99.99
2022-09-09T06:09:06.613Z,99.99
2022-09-09T06:10:06.637Z,99.99
2022-09-09T06:11:06.679Z,99.99
2022-09-09T06:12:06.692Z,99.99
2022-09-09T06:13:06.717Z,99.99
2022-09-09T06:14:06.747Z,99.99
2022-09-09T06:15:06.775Z,99.99
2022-09-09T06:16:06.834Z,99.99
2022-09-09T06:17:06.864Z,99.99
2022-09-09T06:18:06.855Z,99.99
2022-09-09T06:19:06.882Z,99.99
2022-09-09T06:20:07.048Z,99.99
2022-09-09T06:21:06.938Z,99.99
2022-09-09T06:22:06.978Z,99.99
2022-09-09T06:23:06.988Z,99.99
2022-09-09T06:24:07.019Z,99.99
2022-09-09T06:25:07.047Z,99.99
2022-09-09T06:26:07.070Z,99.99
2022-09-09T06:27:07.099Z,99.99
2022-09-09T06:28:07.142Z,99.99
2022-09-09T06:29:07.158Z,99.99
2022-09-09T06:30:07.183Z,99.99
2022-09-09T06:31:07.233Z,99.99
2022-09-09T06:32:07.236Z,99.99
2022-09-09T06:33:07.267Z,99.99
2022-09-09T06:34:07.291Z,99.99
2022-09-09T06:35:07.314Z,99.99
2022-09-09T06:36:07.342Z,99.99
2022-09-09T06:37:07.374Z,99.99
2022-09-09T06:38:07.403Z,99.99
2022-09-09T06:39:12.217Z,99.99
2022-09-09T06:40:07.522Z,99.99
2022-09-09T06:41:07.485Z,99.99
2022-09-09T06:42:07.510Z,99.99
2022-09-09T06:43:07.541Z,99.99
2022-09-09T06:44:07.562Z,99.99
2022-09-09T06:45:07.595Z,99.99
2022-09-09T06:46:07.631Z,99.99
2022-09-09T06:47:07.681Z,99.99
2022-09-09T06:48:07.677Z,99.78
2022-09-09T06:49:07.707Z,99.44
2022-09-09T06:50:07.736Z,99.11
2022-09-09T06:51:07.760Z,99.54
2022-09-09T06:52:07.788Z,99.26
2022-09-09T06:53:07.819Z,99.54
2022-09-09T06:54:07.853Z,98.68
2022-09-09T06:55:07.876Z,97.91
2022-09-09T06:56:07.898Z,97.52
2022-09-09T06:57:33.675Z,97.91
2022-09-09T06:58:07.956Z,97.91
2022-09-09T06:59:07.988Z,97.04
2022-09-09T07:00:08.014Z,96.85
2022-09-09T07:01:08.100Z,96.56
2022-09-09T07:02:08.118Z,96.56
2022-09-09T07:03:08.101Z,96.27
2022-09-09T07:04:08.125Z,96.08
2022-09-09T07:05:08.160Z,96.27
2022-09-09T07:06:08.181Z,96.47
2022-09-09T07:07:08.211Z,96.37
2022-09-09T07:08:08.242Z,96.56
2022-09-09T07:09:08.267Z,97.14
2022-09-09T07:10:08.297Z,96.56
2022-09-09T07:11:12.261Z,96.56
2022-09-09T07:12:08.350Z,96.85
2022-09-09T07:13:08.388Z,95.98
2022-09-09T07:14:08.410Z,96.66
2022-09-09T07:15:08.442Z,95.94
2022-09-09T07:16:08.512Z,96.12
2022-09-09T07:17:08.495Z,96.70
2022-09-09T07:18:08.523Z,96.42
2022-09-09T07:19:08.554Z,95.74
2022-09-09T07:20:08.580Z,95.65
2022-09-09T07:21:08.607Z,95.84
2022-09-09T07:22:08.637Z,95.45
2022-09-09T07:23:08.667Z,95.74
2022-09-09T07:24:08.698Z,94.78
2022-09-09T07:25:08.721Z,93.91
2022-09-09T07:26:08.750Z,95.36
2022-09-09T07:27:08.780Z,95.94
2022-09-09T07:28:08.808Z,95.45
2022-09-09T07:29:08.843Z,95.26
2022-09-09T07:30:08.867Z,95.36
2022-09-09T07:31:08.943Z,94.01
2022-09-09T07:32:09.019Z,93.53
2022-09-09T07:33:08.960Z,93.24
2022-09-09T07:34:09.039Z,93.33
2022-09-09T07:35:09.010Z,93.33
2022-09-09T07:36:09.048Z,92.47
2022-09-09T07:37:09.071Z,92.61
2022-09-09T07:38:09.099Z,92.61
2022-09-09T07:39:09.129Z,93.57
2022-09-09T07:40:09.176Z,93.77
2022-09-09T07:41:09.185Z,93.19
2022-09-09T07:42:09.212Z,93.14
2022-09-09T07:43:09.243Z,92.71
2022-09-09T07:44:09.271Z,92.32
2022-09-09T07:45:09.302Z,92.56
2022-09-09T07:46:09.356Z,91.41
2022-09-09T07:47:09.359Z,91.41
2022-09-09T07:48:09.388Z,90.06
2022-09-09T07:49:09.418Z,89.77
2022-09-09T07:50:09.449Z,90.44
2022-09-09T07:51:09.484Z,90.30
2022-09-09T07:52:09.516Z,89.86
2022-09-09T07:53:09.535Z,89.43
2022-09-09T07:54:09.566Z,88.85
2022-09-09T07:55:09.595Z,89.04
2022-09-09T07:56:09.623Z,88.46
2022-09-09T07:57:09.652Z,88.27
2022-09-09T07:58:09.684Z,87.88
2022-09-09T07:59:09.712Z,86.44
2022-09-09T08:00:09.742Z,86.25
2022-09-09T08:01:09.771Z,86.54
2022-09-09T08:02:09.801Z,86.39
2022-09-09T08:03:09.941Z,86.29
2022-09-09T08:04:09.860Z,86.58
2022-09-09T08:05:09.890Z,86.58
2022-09-09T08:06:09.919Z,86.39
2022-09-09T08:07:09.950Z,86.62
2022-09-09T08:08:09.985Z,85.75
2022-09-09T08:09:10.009Z,84.98
2022-09-09T08:10:10.040Z,84.21
2022-09-09T08:11:10.070Z,84.41
2022-09-09T08:12:10.105Z,84.31
2022-09-09T08:13:17.792Z,84.21
2022-09-09T08:14:10.164Z,83.83
2022-09-09T08:15:10.192Z,83.67
2022-09-09T08:16:10.253Z,83.00
2022-09-09T08:17:10.254Z,82.81
2022-09-09T08:18:10.284Z,82.13
2022-09-09T08:19:10.312Z,82.13
2022-09-09T08:20:10.345Z,81.45
2022-09-09T08:21:10.379Z,81.07
2022-09-09T08:22:10.406Z,81.55
2022-09-09T08:23:10.437Z,81.74
2022-09-09T08:24:10.467Z,80.87
2022-09-09T08:25:10.495Z,80.78
2022-09-09T08:26:10.579Z,80.78
2022-09-09T08:27:10.553Z,80.87
2022-09-09T08:28:10.589Z,80.45
2022-09-09T08:29:10.615Z,80.68
2022-09-09T08:30:10.649Z,81.22
2022-09-09T08:31:10.825Z,81.51
2022-09-09T08:32:10.710Z,80.74
2022-09-09T08:33:10.741Z,81.22
2022-09-09T08:34:10.769Z,80.93
2022-09-09T08:35:10.805Z,81.32
2022-09-09T08:36:10.829Z,81.90
2022-09-09T08:37:10.860Z,81.70
2022-09-09T08:38:11.257Z,81.60
2022-09-09T08:39:10.919Z,81.80
2022-09-09T08:40:10.980Z,81.70
2022-09-09T08:41:10.981Z,81.41
2022-09-09T08:42:11.013Z,81.70
2022-09-09T08:43:11.038Z,81.02
2022-09-09T08:44:11.072Z,81.60
2022-09-09T08:45:11.102Z,81.35
2022-09-09T08:46:11.159Z,81.65
2022-09-09T08:47:11.163Z,80.00
2022-09-09T08:48:11.193Z,79.91
2022-09-09T08:49:11.239Z,80.20
2022-09-09T08:50:11.256Z,80.58
2022-09-09T08:51:11.288Z,80.10
2022-09-09T08:52:11.314Z,80.30
2022-09-09T08:53:11.344Z,79.62
2022-09-09T08:54:11.375Z,79.62
2022-09-09T08:55:11.405Z,79.04
2022-09-09T08:56:11.436Z,78.94
2022-09-09T08:57:11.469Z,79.29
2022-09-09T08:58:11.502Z,78.71
2022-09-09T08:59:11.530Z,79.77
2022-09-09T09:00:11.561Z,81.90
2022-09-09T09:01:11.699Z,85.46
2022-09-09T09:02:16.394Z,85.91
2022-09-09T09:03:11.690Z,86.39
2022-09-09T09:04:11.731Z,87.35
2022-09-09T09:05:11.711Z,88.12
2022-09-09T09:06:11.744Z,88.99
2022-09-09T09:07:11.768Z,89.62
2022-09-09T09:08:11.798Z,90.58
2022-09-09T09:09:11.827Z,91.74
2022-09-09T09:10:24.201Z,91.16
2022-09-09T09:11:19.059Z,91.11
2022-09-09T09:13:16.388Z,92.56
2022-09-09T09:14:15.979Z,90.63
2022-09-09T09:16:20.011Z,88.99
2022-09-09T09:17:19.995Z,88.36
2022-09-09T09:19:24.490Z,87.49
2022-09-09T09:20:24.043Z,87.10
2022-09-09T09:22:28.099Z,86.72
2022-09-09T09:23:28.106Z,85.66
2022-09-09T09:25:32.614Z,84.06
2022-09-09T09:26:32.168Z,83.96
2022-09-09T09:28:36.453Z,82.23
2022-09-09T09:29:50.588Z,81.45
2022-09-09T09:31:29.775Z,81.55
2022-09-09T09:32:29.197Z,81.55
2022-09-09T09:34:33.250Z,80.58
2022-09-09T09:35:37.322Z,79.52
2022-09-09T09:37:26.758Z,79.24
2022-09-09T09:40:30.472Z,79.52
2022-09-09T09:41:30.499Z,80.00
2022-09-09T09:43:35.059Z,78.89
2022-09-09T09:44:34.544Z,78.99
2022-09-09T09:46:38.583Z,77.63
2022-09-09T09:47:38.594Z,76.67
2022-09-09T09:49:43.599Z,75.89
2022-09-09T09:50:42.646Z,76.57
2022-09-09T09:52:46.675Z,76.76
2022-09-09T09:53:46.692Z,77.00
2022-09-09T09:55:51.218Z,74.87
2022-09-09T09:56:50.754Z,74.58
2022-09-09T09:58:54.780Z,75.45
2022-09-09T09:59:54.801Z,75.45
2022-09-09T10:01:59.376Z,74.96
2022-09-09T10:02:58.844Z,73.80
2022-09-09T10:05:02.926Z,74.48
2022-09-09T10:06:02.896Z,73.32
2022-09-09T10:08:07.399Z,73.13
2022-09-09T10:09:06.938Z,73.52
2022-09-09T10:10:59.888Z,74.10
2022-09-09T10:11:59.911Z,73.52
2022-09-09T10:14:04.412Z,73.52
2022-09-09T10:15:03.965Z,74.10
2022-09-09T10:17:07.994Z,74.58
2022-09-09T10:18:08.007Z,75.06
2022-09-09T10:20:12.509Z,75.39
2022-09-09T10:21:12.081Z,74.04
2022-09-09T10:23:16.101Z,72.78
2022-09-09T10:24:16.160Z,72.94
2022-09-09T10:26:20.625Z,72.94
2022-09-09T10:27:20.179Z,73.71
2022-09-09T10:29:24.205Z,73.71
2022-09-09T10:30:24.223Z,73.65
2022-09-09T10:32:28.727Z,73.16
2022-09-09T10:33:28.274Z,73.36
2022-09-09T10:35:32.300Z,71.42
2022-09-09T10:36:32.316Z,71.04
2022-09-09T10:38:36.829Z,70.65
2022-09-09T10:39:40.546Z,70.94
2022-09-09T10:41:29.336Z,71.46
2022-09-09T10:42:29.357Z,70.30
2022-09-09T10:44:33.862Z,70.82
2022-09-09T10:45:33.410Z,70.53
2022-09-09T10:47:37.429Z,69.75
2022-09-09T10:48:37.457Z,68.79
2022-09-09T10:50:50.339Z,68.30
2022-09-09T10:51:30.625Z,68.11
2022-09-09T10:53:34.713Z,68.98
2022-09-09T10:54:34.678Z,68.21
2022-09-09T10:56:40.711Z,66.75
2022-09-09T10:57:38.727Z,67.91
2022-09-09T10:59:31.889Z,68.11
2022-09-09T11:00:31.914Z,68.40
2022-09-09T11:02:36.418Z,68.43
2022-09-09T11:03:36.039Z,67.95
2022-09-09T11:05:39.997Z,66.85
2022-09-09T11:06:40.074Z,67.24
2022-09-09T11:08:44.527Z,66.66
2022-09-09T11:09:44.069Z,66.66
2022-09-09T11:11:48.106Z,67.14
2022-09-09T11:12:48.121Z,67.59
2022-09-09T11:14:52.625Z,67.79
2022-09-09T11:15:52.175Z,68.17
2022-09-09T11:17:56.206Z,68.95
2022-09-09T11:18:56.231Z,68.08
2022-09-09T11:20:49.712Z,69.56
2022-09-09T11:21:49.198Z,68.11
2022-09-09T11:23:53.226Z,67.72
2022-09-09T11:24:53.273Z,66.85
2022-09-09T11:26:57.749Z,65.66
2022-09-09T11:27:57.303Z,66.05
2022-09-09T11:30:01.331Z,66.82
2022-09-09T11:31:01.392Z,66.43
2022-09-09T11:33:05.861Z,67.46
2022-09-09T11:34:05.418Z,67.56
2022-09-09T11:36:09.447Z,68.14
2022-09-09T11:37:09.470Z,68.20
2022-09-09T11:39:13.974Z,70.42
2022-09-09T11:40:13.537Z,70.65
2022-09-09T11:42:17.601Z,70.75
2022-09-09T11:43:17.564Z,70.23
2022-09-09T11:45:22.072Z,69.20
2022-09-09T11:46:21.639Z,69.59
2022-09-09T11:48:25.654Z,70.23
2022-09-09T11:49:25.667Z,71.04
2022-09-09T11:51:19.153Z,71.62
2022-09-09T11:52:18.638Z,72.49
2022-09-09T11:54:22.672Z,72.00
2022-09-09T11:55:22.689Z,72.39
2022-09-09T11:57:27.706Z,72.49
2022-09-09T11:58:26.748Z,71.94
2022-09-09T12:00:30.775Z,70.30
2022-09-09T12:01:30.795Z,70.40
2022-09-09T12:03:35.301Z,67.43
2022-09-09T12:04:34.931Z,67.33
2022-09-09T12:06:38.890Z,67.33
2022-09-09T12:07:38.912Z,67.05
2022-09-09T12:09:43.417Z,63.98
2022-09-09T12:10:42.966Z,62.34
2022-09-09T12:12:39.166Z,60.82
2022-09-09T12:13:36.142Z,60.62
2022-09-09T12:15:40.647Z,60.46
2022-09-09T12:16:40.258Z,60.36
2022-09-09T12:18:33.455Z,60.65
2022-09-09T12:19:33.392Z,59.97
2022-09-09T12:21:26.880Z,58.74
2022-09-09T12:22:26.370Z,57.87
2022-09-09T12:24:30.399Z,58.42
2022-09-09T12:25:30.423Z,58.52
2022-09-09T12:27:34.927Z,59.59
2022-09-09T12:28:34.488Z,59.56
2022-09-09T12:30:38.544Z,59.46
2022-09-09T12:31:40.207Z,59.56
2022-09-09T12:33:43.049Z,59.66
2022-09-09T12:34:42.628Z,60.04
2022-09-09T12:36:49.616Z,58.42
2022-09-09T12:37:46.655Z,58.04
2022-09-09T12:39:51.182Z,57.26
2022-09-09T12:40:50.708Z,57.19
2022-09-09T12:42:54.744Z,57.39
2022-09-09T12:43:55.701Z,56.41
2022-09-09T12:45:59.335Z,55.83
2022-09-09T12:46:58.822Z,56.41
2022-09-09T12:49:03.228Z,56.51
2022-09-09T12:50:02.885Z,56.51
2022-09-09T12:52:07.377Z,56.51
2022-09-09T12:53:06.923Z,56.71
2022-09-09T12:55:10.957Z,56.61
2022-09-09T12:56:10.978Z,56.71
2022-09-09T12:58:15.491Z,56.83
2022-09-09T12:59:15.049Z,55.77
2022-09-09T13:01:08.626Z,56.64
2022-09-09T13:02:08.637Z,56.35
2022-09-09T13:03:08.552Z,55.87
2022-09-09T13:04:08.582Z,55.93
2022-09-09T13:05:08.667Z,55.83
2022-09-09T13:06:08.645Z,56.61
2022-09-09T13:07:08.678Z,56.59
2022-09-09T13:08:08.710Z,57.65
2022-09-09T13:09:08.813Z,58.33
2022-09-09T13:10:08.775Z,57.84
2022-09-09T13:11:08.808Z,58.42
2022-09-09T13:12:08.839Z,58.52
2022-09-09T13:13:08.869Z,58.52
2022-09-09T13:14:08.901Z,58.52
2022-09-09T13:15:08.934Z,58.33
2022-09-09T13:16:08.997Z,58.62
2022-09-09T13:17:09.005Z,58.33
2022-09-09T13:18:09.032Z,58.62
2022-09-09T13:19:09.085Z,58.72
2022-09-09T13:20:09.103Z,58.72
2022-09-09T13:21:09.125Z,58.74
2022-09-09T13:22:09.160Z,57.78
2022-09-09T13:23:09.191Z,57.78
2022-09-09T13:24:09.226Z,56.81
2022-09-09T13:25:09.256Z,57.48
2022-09-09T13:26:09.289Z,57.48
2022-09-09T13:27:09.323Z,57.48
2022-09-09T13:28:09.353Z,56.71
2022-09-09T13:29:09.387Z,56.51
2022-09-09T13:30:09.412Z,56.32
2022-09-09T13:31:09.486Z,56.03
2022-09-09T13:32:09.481Z,55.54
2022-09-09T13:33:09.514Z,55.74
2022-09-09T13:34:09.546Z,55.54
2022-09-09T13:35:09.580Z,55.64
2022-09-09T13:36:09.610Z,55.83
2022-09-09T13:37:09.640Z,55.26
2022-09-09T13:38:09.673Z,55.83
2022-09-09T13:39:09.710Z,56.13
2022-09-09T13:40:09.771Z,56.59
2022-09-09T13:41:09.912Z,56.59
2022-09-09T13:42:09.801Z,56.68
2022-09-09T13:43:09.836Z,56.97
2022-09-09T13:44:09.864Z,57.45
2022-09-09T13:45:09.893Z,56.97
2022-09-09T13:46:09.978Z,56.97
2022-09-09T13:47:10.889Z,57.36
2022-09-09T13:48:09.998Z,58.30
2022-09-09T13:49:10.024Z,58.20
2022-09-09T13:50:10.056Z,58.49
2022-09-09T13:51:10.087Z,59.56
2022-09-09T13:52:10.122Z,59.36
2022-09-09T13:53:10.152Z,60.04
2022-09-09T13:54:10.182Z,60.24
2022-09-09T13:55:10.214Z,59.75
2022-09-09T13:56:10.253Z,60.40
2022-09-09T13:57:10.279Z,60.01
2022-09-09T13:58:10.307Z,60.59
2022-09-09T13:59:10.338Z,60.40
2022-09-09T14:00:10.373Z,60.40
2022-09-09T14:01:10.431Z,60.69
2022-09-09T14:02:10.521Z,60.59
2022-09-09T14:03:10.467Z,60.30
2022-09-09T14:04:10.497Z,60.40
2022-09-09T14:05:10.532Z,60.78
2022-09-09T14:06:10.798Z,61.66
2022-09-09T14:07:10.595Z,61.76
2022-09-09T14:08:10.626Z,61.85
2022-09-09T14:09:10.659Z,61.15
2022-09-09T14:10:10.688Z,62.30
2022-09-09T14:11:10.717Z,62.40
2022-09-09T14:12:10.809Z,62.11
2022-09-09T14:13:10.783Z,62.11
2022-09-09T14:14:10.815Z,62.66
2022-09-09T14:15:10.847Z,62.56
2022-09-09T14:16:10.921Z,63.34
2022-09-09T14:17:10.908Z,63.63
2022-09-09T14:18:10.939Z,63.14
2022-09-09T14:19:11.030Z,63.63
2022-09-09T14:20:11.009Z,63.82
2022-09-09T14:21:11.032Z,63.43
2022-09-09T14:22:11.111Z,63.43
2022-09-09T14:23:11.099Z,64.01
2022-09-09T14:24:11.131Z,65.08
2022-09-09T14:25:11.181Z,64.69
2022-09-09T14:26:11.186Z,64.50
2022-09-09T14:27:11.227Z,64.62
2022-09-09T14:28:11.249Z,64.62
2022-09-09T14:29:11.284Z,64.72
2022-09-09T14:30:11.332Z,65.69
2022-09-09T14:31:11.387Z,64.72
2022-09-09T14:32:12.842Z,65.05